createdAt,value
2019-01-06T00:02:42.673Z,91.63
2019-01-06T00:05:19.140Z,91.13
2019-01-06T00:07:53.340Z,91.15
2019-01-06T00:10:30.222Z,91.60
2019-01-06T00:13:04.412Z,91.76
2019-01-06T00:15:41.227Z,91.67
2019-01-06T00:18:18.929Z,91.71
2019-01-06T00:20:53.426Z,91.85
2019-01-06T00:24:31.647Z,91.30
2019-01-06T00:27:04.668Z,91.23
2019-01-06T00:29:38.896Z,91.34
2019-01-06T00:32:13.654Z,91.41
2019-01-06T00:34:49.548Z,91.67
2019-01-06T00:38:23.538Z,91.54
2019-01-06T00:40:57.787Z,91.06
2019-01-06T00:43:42.727Z,91.18
2019-01-06T00:47:19.822Z,91.43
2019-01-06T00:49:53.960Z,91.36
2019-01-06T00:52:28.767Z,91.40
2019-01-06T00:55:03.601Z,91.45
2019-01-06T00:57:37.587Z,90.96
2019-01-06T01:00:11.811Z,91.30
2019-01-06T01:03:12.035Z,91.31
2019-01-06T01:05:47.907Z,90.78
2019-01-06T01:09:20.844Z,91.13
2019-01-06T01:11:56.778Z,91.07
2019-01-06T01:14:30.944Z,91.16
2019-01-06T01:17:08.964Z,91.34
2019-01-06T01:19:43.044Z,91.25
2019-01-06T01:22:23.024Z,91.26
2019-01-06T01:24:57.786Z,91.41
2019-01-06T01:27:35.815Z,91.50
2019-01-06T01:30:10.439Z,91.41
2019-01-06T01:32:50.094Z,91.88
2019-01-06T01:36:23.029Z,91.87
2019-01-06T01:41:01.025Z,91.39
2019-01-06T01:43:38.054Z,91.32
2019-01-06T01:46:13.205Z,91.36
2019-01-06T01:48:48.045Z,92.01
2019-01-06T01:52:20.176Z,92.09
2019-01-06T01:54:54.100Z,92.04
2019-01-06T01:57:31.942Z,91.92
2019-01-06T02:00:37.433Z,92.00
2019-01-06T02:03:17.699Z,91.66
2019-01-06T02:05:51.920Z,91.89
2019-01-06T02:08:29.764Z,91.64
2019-01-06T02:11:39.433Z,92.04
2019-01-06T02:14:17.955Z,92.06
2019-01-06T02:17:06.993Z,91.66
2019-01-06T02:19:42.461Z,91.85
2019-01-06T02:22:21.590Z,91.96
2019-01-06T02:25:58.762Z,91.64
2019-01-06T02:30:36.582Z,91.45
2019-01-06T02:33:09.504Z,91.41
2019-01-06T02:35:47.642Z,91.67
2019-01-06T02:38:21.783Z,92.25
2019-01-06T02:40:57.627Z,92.47
2019-01-06T02:43:32.608Z,92.04
2019-01-06T02:46:13.631Z,92.07
2019-01-06T02:48:46.898Z,92.18
2019-01-06T02:51:56.252Z,92.04
2019-01-06T02:54:29.224Z,92.20
2019-01-06T02:57:09.154Z,91.55
2019-01-06T02:59:44.647Z,91.78
2019-01-06T03:02:18.759Z,92.29
2019-01-06T03:04:56.780Z,91.75
2019-01-06T03:07:30.897Z,92.18
2019-01-06T03:10:05.231Z,91.85
2019-01-06T03:12:42.855Z,91.98
2019-01-06T03:16:16.726Z,91.84
2019-01-06T03:18:51.730Z,91.72
2019-01-06T03:21:25.866Z,91.31
2019-01-06T03:24:00.196Z,91.54
2019-01-06T03:26:44.239Z,91.43
2019-01-06T03:30:18.024Z,91.46
2019-01-06T03:32:54.126Z,91.68
2019-01-06T03:35:27.368Z,91.65
2019-01-06T03:38:02.273Z,91.25
2019-01-06T03:40:35.345Z,91.56
2019-01-06T03:43:15.316Z,91.40
2019-01-06T03:46:24.082Z,91.74
2019-01-06T03:49:18.279Z,91.50
2019-01-06T03:51:52.394Z,91.10
2019-01-06T03:55:00.718Z,91.20
2019-01-06T03:57:34.768Z,91.33
2019-01-06T04:00:10.114Z,91.23
2019-01-06T04:02:48.014Z,91.61
2019-01-06T04:05:36.299Z,91.52
2019-01-06T04:08:11.014Z,91.59
2019-01-06T04:12:50.068Z,91.52
2019-01-06T04:15:26.026Z,91.09
2019-01-06T04:18:06.609Z,90.76
2019-01-06T04:20:59.790Z,91.22
2019-01-06T04:23:35.674Z,91.07
2019-01-06T04:26:10.733Z,91.35
2019-01-06T04:28:44.973Z,90.59
2019-01-06T04:31:19.939Z,91.38
2019-01-06T04:36:00.039Z,91.38
2019-01-06T04:38:39.116Z,90.84
2019-01-06T04:41:17.144Z,90.81
2019-01-06T04:43:51.434Z,90.77
2019-01-06T04:46:27.391Z,90.89
2019-01-06T04:49:03.276Z,90.66
2019-01-06T04:52:40.495Z,90.59
2019-01-06T04:55:17.470Z,90.46
2019-01-06T04:57:57.628Z,90.84
2019-01-06T05:00:33.583Z,91.17
2019-01-06T05:03:08.128Z,90.54
2019-01-06T05:05:42.364Z,91.16
2019-01-06T05:09:17.430Z,90.86
2019-01-06T05:11:51.535Z,90.74
2019-01-06T05:14:25.796Z,90.56
2019-01-06T05:17:01.847Z,91.07
2019-01-06T05:19:35.943Z,91.13
2019-01-06T05:22:10.944Z,90.90
2019-01-06T05:24:45.155Z,90.25
2019-01-06T05:27:19.207Z,90.80
2019-01-06T05:29:54.528Z,91.17
2019-01-06T05:32:27.511Z,90.73
2019-01-06T05:35:59.852Z,91.19
2019-01-06T05:38:37.842Z,90.70
2019-01-06T05:41:11.932Z,91.14
2019-01-06T05:43:50.818Z,91.20
2019-01-06T05:46:25.021Z,91.63
2019-01-06T05:48:59.756Z,91.63
2019-01-06T05:56:45.413Z,91.28
2019-01-06T05:59:19.654Z,90.88
2019-01-06T06:01:54.593Z,91.71
2019-01-06T06:04:41.272Z,91.59
2019-01-06T06:07:16.051Z,91.31
2019-01-06T06:09:50.316Z,91.67
2019-01-06T06:12:25.772Z,91.83
2019-01-06T06:14:59.914Z,91.83
2019-01-06T06:17:37.799Z,91.49
2019-01-06T06:20:10.823Z,91.52
2019-01-06T06:22:54.380Z,91.41
2019-01-06T06:25:28.275Z,91.69
2019-01-06T06:29:02.081Z,91.45
2019-01-06T06:31:35.634Z,91.32
2019-01-06T06:34:09.851Z,90.94
2019-01-06T06:36:52.937Z,91.34
2019-01-06T06:39:27.935Z,90.94
2019-01-06T06:42:00.899Z,91.13
2019-01-06T06:44:33.926Z,91.13
2019-01-06T06:48:13.941Z,91.63
2019-01-06T06:50:58.852Z,90.95
2019-01-06T06:53:33.143Z,91.65
2019-01-06T06:56:08.322Z,91.01
2019-01-06T06:58:45.339Z,91.52
2019-01-06T07:02:30.340Z,91.20
2019-01-06T07:05:03.614Z,91.21
2019-01-06T07:07:38.386Z,91.02
2019-01-06T07:10:12.671Z,91.11
2019-01-06T07:13:50.453Z,91.12
2019-01-06T07:16:36.179Z,91.75
2019-01-06T07:19:10.188Z,91.53
2019-01-06T07:21:55.152Z,91.20
2019-01-06T07:24:38.335Z,91.34
2019-01-06T07:27:20.633Z,91.61
2019-01-06T07:30:54.204Z,91.42
2019-01-06T07:34:27.213Z,91.26
2019-01-06T07:37:01.505Z,90.95
2019-01-06T07:39:35.720Z,91.33
2019-01-06T07:42:25.619Z,91.09
2019-01-06T07:45:08.051Z,91.34
2019-01-06T07:47:43.783Z,90.79
2019-01-06T07:51:15.798Z,90.92
2019-01-06T07:53:50.143Z,91.29
2019-01-06T07:56:24.228Z,90.95
2019-01-06T07:58:58.947Z,91.35
2019-01-06T08:02:06.215Z,91.33
2019-01-06T08:04:40.727Z,91.21
2019-01-06T08:07:14.924Z,91.57
2019-01-06T08:09:48.076Z,91.77
2019-01-06T08:12:21.715Z,91.79
2019-01-06T08:14:56.000Z,91.35
2019-01-06T08:17:36.803Z,91.37
2019-01-06T08:20:09.862Z,91.87
2019-01-06T08:22:42.897Z,91.64
2019-01-06T08:25:47.256Z,91.12
2019-01-06T08:28:21.996Z,91.40
2019-01-06T08:31:11.184Z,91.16
2019-01-06T08:33:52.662Z,91.31
2019-01-06T08:36:27.532Z,91.47
2019-01-06T08:39:01.684Z,91.48
2019-01-06T08:41:35.808Z,91.20
2019-01-06T08:44:21.879Z,91.58
2019-01-06T08:47:00.809Z,91.34
2019-01-06T08:49:34.160Z,91.67
2019-01-06T08:52:08.348Z,91.64
2019-01-06T08:54:43.159Z,91.96
2019-01-06T08:57:30.179Z,90.99
2019-01-06T09:01:13.300Z,91.00
2019-01-06T09:03:50.379Z,91.06
2019-01-06T09:06:38.502Z,90.99
2019-01-06T09:09:15.360Z,90.32
2019-01-06T09:11:50.272Z,90.60
2019-01-06T09:15:25.417Z,90.62
2019-01-06T09:18:18.523Z,90.38
2019-01-06T09:20:52.990Z,90.21
2019-01-06T09:23:28.813Z,89.82
2019-01-06T09:27:07.491Z,90.36
2019-01-06T09:29:41.514Z,89.54
2019-01-06T09:33:19.147Z,89.39
2019-01-06T09:35:57.340Z,89.34
2019-01-06T09:38:34.443Z,88.84
2019-01-06T09:43:12.214Z,89.48
2019-01-06T09:45:47.282Z,88.71
2019-01-06T09:48:21.900Z,88.95
2019-01-06T09:50:58.684Z,88.87
2019-01-06T09:53:36.328Z,88.46
2019-01-06T09:56:21.079Z,88.17
2019-01-06T10:02:44.402Z,88.14
2019-01-06T10:05:32.560Z,88.12
2019-01-06T10:09:06.577Z,87.61
2019-01-06T10:11:41.407Z,88.38
2019-01-06T10:15:18.641Z,88.45
2019-01-06T10:17:52.619Z,87.85
2019-01-06T10:20:27.060Z,87.67
2019-01-06T10:23:03.147Z,88.01
2019-01-06T10:25:37.727Z,87.67
2019-01-06T10:28:13.524Z,86.89
2019-01-06T10:30:46.716Z,87.00
2019-01-06T10:35:26.925Z,86.63
2019-01-06T10:38:02.054Z,86.66
2019-01-06T10:40:42.115Z,86.95
2019-01-06T10:43:47.053Z,86.72
2019-01-06T10:46:34.057Z,86.61
2019-01-06T10:49:08.354Z,86.43
2019-01-06T10:51:51.440Z,86.21
2019-01-06T10:55:28.141Z,86.06
2019-01-06T10:57:59.257Z,85.60
2019-01-06T11:00:33.460Z,85.44
2019-01-06T11:03:11.309Z,85.72
2019-01-06T11:05:44.287Z,85.79
2019-01-06T11:08:18.570Z,85.56
2019-01-06T11:10:53.507Z,85.67
2019-01-06T11:13:29.426Z,86.06
2019-01-06T11:16:03.618Z,85.42
2019-01-06T11:18:41.316Z,85.60
2019-01-06T11:21:16.335Z,85.09
2019-01-06T11:23:56.516Z,84.80
2019-01-06T11:26:31.592Z,85.46
2019-01-06T11:29:23.787Z,85.68
2019-01-06T11:33:01.910Z,85.61
2019-01-06T11:35:38.072Z,85.49
2019-01-06T11:38:11.669Z,84.88
2019-01-06T11:40:45.817Z,85.25
2019-01-06T11:43:22.659Z,84.86
2019-01-06T11:46:13.427Z,84.44
2019-01-06T11:50:52.483Z,83.88
2019-01-06T11:53:28.539Z,83.81
2019-01-06T11:56:05.259Z,83.95
2019-01-06T11:58:42.875Z,84.07
2019-01-06T12:01:17.936Z,84.40
2019-01-06T12:04:02.181Z,84.32
2019-01-06T12:06:38.988Z,84.63
2019-01-06T12:09:11.948Z,84.39
2019-01-06T12:12:47.932Z,83.51
2019-01-06T12:15:24.191Z,82.08
2019-01-06T12:18:06.783Z,80.75
2019-01-06T12:20:45.894Z,79.53
2019-01-06T12:23:22.958Z,79.46
2019-01-06T12:25:57.988Z,77.92
2019-01-06T12:29:29.883Z,77.50
2019-01-06T12:32:05.896Z,77.41
2019-01-06T12:34:40.676Z,76.86
2019-01-06T12:37:17.734Z,77.03
2019-01-06T12:40:07.012Z,76.85
2019-01-06T12:42:42.091Z,76.22
2019-01-06T12:45:18.268Z,76.71
2019-01-06T12:47:53.663Z,75.12
2019-01-06T12:50:33.620Z,74.93
2019-01-06T12:53:07.850Z,74.56
2019-01-06T12:55:42.060Z,74.51
2019-01-06T12:59:21.391Z,74.55
2019-01-06T13:01:59.844Z,75.02
2019-01-06T13:04:34.176Z,75.21
2019-01-06T13:07:10.105Z,75.90
2019-01-06T13:10:48.224Z,75.91
2019-01-06T13:13:25.246Z,76.35
2019-01-06T13:16:00.763Z,76.44
2019-01-06T13:18:35.892Z,76.48
2019-01-06T13:21:10.243Z,76.46
2019-01-06T13:23:51.855Z,76.30
2019-01-06T13:26:25.840Z,76.29
2019-01-06T13:29:00.991Z,76.16
2019-01-06T13:32:32.612Z,75.70
2019-01-06T13:37:10.333Z,76.49
2019-01-06T13:39:59.590Z,76.20
2019-01-06T13:42:43.536Z,76.39
2019-01-06T13:45:17.735Z,76.69
2019-01-06T13:47:52.252Z,77.20
2019-01-06T13:50:26.924Z,77.50
2019-01-06T13:53:01.246Z,77.72
2019-01-06T13:55:35.696Z,78.25
2019-01-06T13:58:09.995Z,77.60
2019-01-06T14:00:44.028Z,77.79
2019-01-06T14:03:20.875Z,78.14
2019-01-06T14:05:54.818Z,78.56
2019-01-06T14:08:33.816Z,78.58
2019-01-06T14:11:11.895Z,78.87
2019-01-06T14:13:48.847Z,78.89
2019-01-06T14:16:27.698Z,78.84
2019-01-06T14:19:03.504Z,79.00
2019-01-06T14:21:37.867Z,79.16
2019-01-06T14:24:13.834Z,79.01
2019-01-06T14:26:51.954Z,79.15
2019-01-06T14:29:26.166Z,78.78
2019-01-06T14:32:00.757Z,79.04
2019-01-06T14:34:37.622Z,79.53
2019-01-06T14:37:10.654Z,79.94
2019-01-06T14:39:44.807Z,79.80
2019-01-06T14:43:17.819Z,79.24
2019-01-06T14:47:54.910Z,79.24
2019-01-06T14:50:38.927Z,78.81
2019-01-06T14:53:29.708Z,79.59
2019-01-06T14:56:02.339Z,80.11
2019-01-06T14:58:35.349Z,80.11
2019-01-06T15:03:14.600Z,80.02
2019-01-06T15:05:48.922Z,79.89
2019-01-06T15:08:27.007Z,80.29
2019-01-06T15:11:06.095Z,80.76
2019-01-06T15:13:42.080Z,81.15
2019-01-06T15:18:19.374Z,81.17
2019-01-06T15:21:30.536Z,81.55
2019-01-06T15:24:20.743Z,81.63
2019-01-06T15:26:56.334Z,81.47
2019-01-06T15:29:50.467Z,81.84
2019-01-06T15:32:57.939Z,81.55
2019-01-06T15:35:37.978Z,81.98
2019-01-06T15:38:16.983Z,82.03
2019-01-06T15:41:27.562Z,82.16
2019-01-06T15:44:01.788Z,82.67
2019-01-06T15:46:42.298Z,82.49
2019-01-06T15:49:48.722Z,83.03
2019-01-06T15:52:56.422Z,82.67
2019-01-06T15:55:29.383Z,82.99
2019-01-06T15:58:03.568Z,82.72
2019-01-06T16:00:40.826Z,82.97
2019-01-06T16:03:17.811Z,83.19
2019-01-06T16:05:52.248Z,82.84
2019-01-06T16:10:28.959Z,83.09
2019-01-06T16:13:03.857Z,83.05
2019-01-06T16:15:37.915Z,83.00
2019-01-06T16:18:44.676Z,82.85
2019-01-06T16:21:18.812Z,83.59
2019-01-06T16:23:53.129Z,83.38
2019-01-06T16:27:25.774Z,83.55
2019-01-06T16:30:01.712Z,83.11
2019-01-06T16:32:36.014Z,82.92
2019-01-06T16:35:11.291Z,83.14
2019-01-06T16:38:48.000Z,83.16
2019-01-06T16:41:24.042Z,83.37
2019-01-06T16:44:04.886Z,82.96
2019-01-06T16:46:41.371Z,83.13
2019-01-06T16:49:15.394Z,82.83
2019-01-06T16:52:47.395Z,83.29
2019-01-06T16:55:21.735Z,83.33
2019-01-06T16:59:59.609Z,83.33
2019-01-06T17:02:34.857Z,83.24
2019-01-06T17:05:09.719Z,83.43
2019-01-06T17:07:42.695Z,83.89
2019-01-06T17:10:47.951Z,83.87
2019-01-06T17:13:22.168Z,83.58
2019-01-06T17:16:01.183Z,84.02
2019-01-06T17:18:35.349Z,83.38
2019-01-06T17:21:17.383Z,84.13
2019-01-06T17:23:52.050Z,83.57
2019-01-06T17:26:29.075Z,83.85
2019-01-06T17:31:07.271Z,83.44
2019-01-06T17:34:11.539Z,83.58
2019-01-06T17:38:50.540Z,83.17
2019-01-06T17:41:24.491Z,82.89
2019-01-06T17:43:59.399Z,83.43
2019-01-06T17:47:35.486Z,83.77
2019-01-06T17:50:08.759Z,83.55
2019-01-06T17:53:00.052Z,83.39
2019-01-06T17:56:32.978Z,83.51
2019-01-06T17:59:13.998Z,83.23
2019-01-06T18:01:50.088Z,83.17
2019-01-06T18:04:24.394Z,83.17
2019-01-06T18:07:13.438Z,83.51
2019-01-06T18:09:47.672Z,83.79
2019-01-06T18:13:25.651Z,82.57
2019-01-06T18:15:59.687Z,83.02
2019-01-06T18:18:35.896Z,83.13
2019-01-06T18:21:10.442Z,82.96
2019-01-06T18:23:44.661Z,83.59
2019-01-06T18:27:22.000Z,83.39
2019-01-06T18:29:56.215Z,83.15
2019-01-06T18:32:45.406Z,83.17
2019-01-06T18:35:19.635Z,83.19
2019-01-06T18:37:54.801Z,83.19
2019-01-06T18:40:30.825Z,83.12
2019-01-06T18:44:08.740Z,83.60
2019-01-06T18:46:45.229Z,82.50
2019-01-06T18:49:26.299Z,82.63
2019-01-06T18:52:00.450Z,82.93
2019-01-06T18:54:34.965Z,83.05
2019-01-06T18:57:09.195Z,83.09
2019-01-06T18:59:42.725Z,82.87
2019-01-06T19:02:22.655Z,82.91
2019-01-06T19:07:04.993Z,82.98
2019-01-06T19:09:39.246Z,83.29
2019-01-06T19:12:12.330Z,82.95
2019-01-06T19:14:49.295Z,82.86
2019-01-06T19:19:32.270Z,83.29
2019-01-06T19:24:11.082Z,83.46
2019-01-06T19:27:20.547Z,83.07
2019-01-06T19:29:56.375Z,82.65
2019-01-06T19:32:30.959Z,83.43
2019-01-06T19:35:04.981Z,83.51
2019-01-06T19:39:42.403Z,83.59
2019-01-06T19:43:14.302Z,83.44
2019-01-06T19:45:55.372Z,82.53
2019-01-06T19:48:34.275Z,83.75
2019-01-06T19:51:08.510Z,83.75
2019-01-06T19:53:45.154Z,83.19
2019-01-06T19:56:26.272Z,83.50
2019-01-06T19:59:04.271Z,83.13
2019-01-06T20:01:39.331Z,82.86
2019-01-06T20:04:14.459Z,83.25
2019-01-06T20:06:48.967Z,83.41
2019-01-06T20:09:23.393Z,83.11
2019-01-06T20:12:06.628Z,83.31
2019-01-06T20:14:43.962Z,83.83
2019-01-06T20:17:50.522Z,83.59
2019-01-06T20:20:25.220Z,83.62
2019-01-06T20:22:59.367Z,83.09
2019-01-06T20:25:35.016Z,83.42
2019-01-06T20:28:11.027Z,83.34
2019-01-06T20:30:45.299Z,84.09
2019-01-06T20:33:35.339Z,83.52
2019-01-06T20:36:12.304Z,83.94
2019-01-06T20:38:47.295Z,83.86
2019-01-06T20:43:26.876Z,83.68
2019-01-06T20:47:02.078Z,83.98
2019-01-06T20:49:40.167Z,84.29
2019-01-06T20:52:16.316Z,84.10
2019-01-06T20:54:54.477Z,84.36
2019-01-06T20:59:33.541Z,84.41
2019-01-06T21:03:11.472Z,84.29
2019-01-06T21:05:46.495Z,83.68
2019-01-06T21:08:20.442Z,84.55
2019-01-06T21:11:00.336Z,84.24
2019-01-06T21:15:37.365Z,84.27
2019-01-06T21:18:11.299Z,84.41
2019-01-06T21:22:50.397Z,83.59
2019-01-06T21:26:27.243Z,84.00
2019-01-06T21:29:32.648Z,83.82
2019-01-06T21:32:06.880Z,84.18
2019-01-06T21:34:41.924Z,84.06
2019-01-06T21:37:49.407Z,84.64
2019-01-06T21:40:27.297Z,84.15
2019-01-06T21:43:01.521Z,85.06
2019-01-06T21:45:40.669Z,84.46
2019-01-06T21:48:19.435Z,85.17
2019-01-06T21:50:53.277Z,84.61
2019-01-06T21:54:04.141Z,85.23
2019-01-06T21:56:34.836Z,84.56
2019-01-06T21:59:10.825Z,84.87
2019-01-06T22:01:47.908Z,84.65
2019-01-06T22:04:23.877Z,84.55
2019-01-06T22:07:02.911Z,84.84
2019-01-06T22:09:41.051Z,84.81
2019-01-06T22:12:15.225Z,85.36
2019-01-06T22:14:54.815Z,85.58
2019-01-06T22:17:30.712Z,85.51
2019-01-06T22:20:09.715Z,86.06
2019-01-06T22:22:44.394Z,85.32
2019-01-06T22:25:19.704Z,86.01
2019-01-06T22:27:56.639Z,85.65
2019-01-06T22:30:30.587Z,85.96
2019-01-06T22:33:04.802Z,85.70
2019-01-06T22:35:39.139Z,85.62
2019-01-06T22:38:22.993Z,85.53
2019-01-06T22:40:57.135Z,85.45
2019-01-06T22:43:34.102Z,85.53
2019-01-06T22:46:08.178Z,85.87
2019-01-06T22:48:43.671Z,85.58
2019-01-06T22:51:17.912Z,86.12
2019-01-06T22:53:50.892Z,86.12
2019-01-06T22:56:31.763Z,85.72
2019-01-06T22:59:06.299Z,85.83
2019-01-06T23:01:42.277Z,86.41
2019-01-06T23:04:16.352Z,86.60
2019-01-06T23:06:50.754Z,86.50
2019-01-06T23:09:26.991Z,86.42
2019-01-06T23:12:01.300Z,86.22
2019-01-06T23:14:40.883Z,86.33
2019-01-06T23:17:17.459Z,86.30
2019-01-06T23:19:54.448Z,86.25
2019-01-06T23:24:37.159Z,85.76
2019-01-06T23:27:16.144Z,85.55
2019-01-06T23:29:52.039Z,85.76
2019-01-06T23:32:26.304Z,85.89
2019-01-06T23:35:00.374Z,86.17
2019-01-06T23:37:33.349Z,86.43
2019-01-06T23:40:09.435Z,85.90
2019-01-06T23:42:46.449Z,85.98
2019-01-06T23:46:22.560Z,86.45
2019-01-06T23:48:58.091Z,86.00
2019-01-06T23:51:32.233Z,85.66
2019-01-06T23:54:13.308Z,86.61
2019-01-06T23:56:47.183Z,86.11
2019-01-06T23:59:51.542Z,85.99
